createdAt,value
2022-09-09T00:00:34.799Z,10.60
2022-09-09T00:02:25.420Z,8.20
2022-09-09T00:03:47.359Z,7.90
2022-09-09T00:05:29.313Z,8.10
2022-09-09T00:07:13.317Z,8.30
2022-09-09T00:08:24.346Z,8.10
2022-09-09T00:09:31.745Z,9.80
2022-09-09T00:10:41.808Z,8.00
2022-09-09T00:12:07.108Z,9.70
2022-09-09T00:13:29.943Z,10.20
2022-09-09T00:14:56.211Z,7.90
2022-09-09T00:16:21.225Z,10.30
2022-09-09T00:17:43.201Z,8.30
2022-09-09T00:19:07.561Z,7.50
2022-09-09T00:20:40.637Z,8.70
2022-09-09T00:21:56.106Z,7.20
2022-09-09T00:23:32.045Z,8.20
2022-09-09T00:24:49.172Z,8.80
2022-09-09T00:26:22.900Z,8.50
2022-09-09T00:27:44.141Z,8.20
2022-09-09T00:29:08.550Z,8.70
2022-09-09T00:30:24.307Z,6.50
2022-09-09T00:31:31.086Z,9.70
2022-09-09T00:32:37.376Z,10.60
2022-09-09T00:33:44.284Z,9.50
2022-09-09T00:34:50.946Z,7.80
2022-09-09T00:36:02.811Z,8.30
2022-09-09T00:37:11.083Z,6.80
2022-09-09T00:38:27.947Z,17.00
2022-09-09T00:39:48.588Z,7.40
2022-09-09T00:41:04.733Z,8.40
2022-09-09T00:42:43.565Z,9.80
2022-09-09T00:44:04.994Z,6.40
2022-09-09T00:45:45.772Z,6.00
2022-09-09T00:49:31.503Z,9.00
2022-09-09T00:50:51.275Z,10.10
2022-09-09T00:52:12.284Z,7.90
2022-09-09T00:53:42.206Z,8.40
2022-09-09T00:55:10.857Z,6.70
2022-09-09T00:56:25.190Z,8.30
2022-09-09T00:57:36.920Z,8.70
2022-09-09T00:59:12.303Z,6.30
2022-09-09T01:00:38.061Z,7.70
2022-09-09T01:02:05.125Z,7.80
2022-09-09T01:03:37.443Z,7.80
2022-09-09T01:04:48.763Z,7.20
2022-09-09T01:06:16.477Z,8.20
2022-09-09T01:10:32.816Z,8.40
2022-09-09T01:12:01.121Z,6.90
2022-09-09T01:13:14.591Z,16.20
2022-09-09T01:14:39.016Z,7.80
2022-09-09T01:15:46.961Z,10.40
2022-09-09T01:16:56.279Z,6.30
2022-09-09T01:18:04.212Z,7.10
2022-09-09T01:19:14.079Z,8.70
2022-09-09T01:21:02.409Z,7.70
2022-09-09T01:22:41.499Z,7.80
2022-09-09T01:23:53.820Z,8.90
2022-09-09T01:25:37.008Z,7.30
2022-09-09T01:26:48.300Z,6.40
2022-09-09T01:28:09.442Z,7.20
2022-09-09T01:29:20.919Z,7.20
2022-09-09T01:30:26.808Z,7.60
2022-09-09T01:31:43.926Z,5.20
2022-09-09T01:32:51.461Z,6.40
2022-09-09T01:34:00.496Z,8.30
2022-09-09T01:35:07.123Z,7.10
2022-09-09T01:36:45.001Z,5.10
2022-09-09T01:37:53.665Z,7.50
2022-09-09T01:39:00.706Z,7.50
2022-09-09T01:40:07.618Z,9.80
2022-09-09T01:41:14.317Z,5.60
2022-09-09T01:42:30.801Z,8.00
2022-09-09T01:43:38.019Z,6.40
2022-09-09T01:44:46.922Z,8.20
2022-09-09T01:45:56.821Z,6.90
2022-09-09T01:47:03.316Z,7.80
2022-09-09T01:48:12.079Z,7.90
2022-09-09T01:49:22.504Z,8.50
2022-09-09T01:50:31.823Z,6.80
2022-09-09T01:51:38.457Z,7.10
2022-09-09T01:53:00.894Z,7.60
2022-09-09T01:54:17.038Z,9.00
2022-09-09T01:55:33.646Z,12.40
2022-09-09T01:57:20.339Z,9.20
2022-09-09T01:59:04.803Z,5.60
2022-09-09T02:00:13.264Z,9.70
2022-09-09T02:03:28.110Z,5.40
2022-09-09T02:22:04.910Z,5.80
2022-09-09T02:23:17.138Z,6.20
2022-09-09T02:27:12.071Z,6.50
2022-09-09T02:30:10.408Z,5.80
2022-09-09T02:31:37.029Z,6.20
2022-09-09T02:32:45.442Z,6.90
2022-09-09T02:33:56.394Z,7.10
2022-09-09T02:35:19.844Z,7.60
2022-09-09T02:36:26.231Z,7.70
2022-09-09T02:37:36.742Z,7.10
2022-09-09T02:38:55.038Z,6.90
2022-09-09T02:40:09.050Z,5.40
2022-09-09T02:41:18.923Z,5.90
2022-09-09T02:42:51.090Z,6.70
2022-09-09T02:44:22.009Z,7.00
2022-09-09T02:46:04.761Z,5.90
2022-09-09T02:50:21.531Z,10.10
2022-09-09T02:51:56.493Z,6.60
2022-09-09T02:53:19.967Z,7.20
2022-09-09T02:55:00.038Z,6.20
2022-09-09T02:56:30.484Z,6.20
2022-09-09T02:57:40.054Z,6.40
2022-09-09T02:58:47.202Z,6.80
2022-09-09T02:59:54.660Z,6.60
2022-09-09T03:01:04.569Z,6.00
2022-09-09T03:02:13.045Z,8.60
2022-09-09T03:03:20.206Z,6.60
2022-09-09T03:04:27.977Z,5.90
2022-09-09T03:05:35.689Z,6.80
2022-09-09T03:06:43.114Z,7.00
2022-09-09T03:07:59.253Z,6.80
2022-09-09T03:09:06.862Z,5.80
2022-09-09T03:10:14.145Z,6.00
2022-09-09T03:11:23.420Z,7.80
2022-09-09T03:12:30.429Z,8.00
2022-09-09T03:13:37.612Z,8.50
2022-09-09T03:14:51.325Z,10.70
2022-09-09T03:15:59.761Z,6.70
2022-09-09T03:17:22.338Z,8.10
2022-09-09T03:25:10.614Z,7.50
2022-09-09T03:27:10.311Z,9.10
2022-09-09T03:28:19.033Z,6.70
2022-09-09T03:29:30.322Z,7.80
2022-09-09T03:30:57.691Z,7.50
2022-09-09T03:34:06.801Z,6.40
2022-09-09T03:35:23.980Z,10.30
2022-09-09T03:36:32.121Z,6.30
2022-09-09T03:37:52.347Z,8.30
2022-09-09T03:39:04.299Z,7.40
2022-09-09T03:40:40.345Z,7.00
2022-09-09T03:42:11.368Z,6.10
2022-09-09T03:45:20.545Z,6.00
2022-09-09T03:46:35.917Z,7.70
2022-09-09T03:47:46.284Z,7.20
2022-09-09T03:48:57.085Z,6.50
2022-09-09T03:50:04.287Z,7.80
2022-09-09T03:51:11.482Z,10.30
2022-09-09T03:52:23.941Z,7.20
2022-09-09T03:53:39.774Z,6.00
2022-09-09T03:55:19.050Z,7.60
2022-09-09T03:56:29.897Z,7.60
2022-09-09T03:57:37.502Z,6.30
2022-09-09T03:58:47.373Z,11.60
2022-09-09T03:59:54.566Z,7.40
2022-09-09T04:01:04.875Z,11.10
2022-09-09T04:02:14.774Z,12.60
2022-09-09T04:03:27.991Z,8.90
2022-09-09T04:04:37.655Z,16.60
2022-09-09T04:05:44.153Z,7.40
2022-09-09T04:06:51.004Z,9.70
2022-09-09T04:07:58.497Z,10.60
2022-09-09T04:09:04.623Z,10.20
2022-09-09T04:10:14.611Z,8.80
2022-09-09T04:11:22.705Z,6.80
2022-09-09T04:12:33.926Z,6.10
2022-09-09T04:13:41.050Z,6.80
2022-09-09T04:14:48.697Z,7.70
2022-09-09T04:15:57.226Z,8.90
2022-09-09T04:17:08.104Z,7.50
2022-09-09T04:18:19.998Z,7.90
2022-09-09T04:19:34.142Z,11.40
2022-09-09T04:20:58.524Z,6.30
2022-09-09T04:22:37.582Z,6.90
2022-09-09T04:24:18.217Z,9.20
2022-09-09T04:25:28.252Z,8.30
2022-09-09T04:26:58.093Z,19.20
2022-09-09T04:30:01.939Z,7.20
2022-09-09T04:31:22.031Z,8.80
2022-09-09T04:32:29.476Z,9.40
2022-09-09T04:33:39.903Z,9.10
2022-09-09T04:34:50.269Z,7.70
2022-09-09T04:35:58.689Z,8.40
2022-09-09T04:37:06.940Z,7.20
2022-09-09T04:38:15.120Z,9.40
2022-09-09T04:39:21.856Z,6.00
2022-09-09T04:40:28.717Z,5.90
2022-09-09T04:41:35.138Z,7.20
2022-09-09T04:42:45.402Z,8.20
2022-09-09T04:43:55.427Z,9.80
2022-09-09T04:45:03.498Z,7.50
2022-09-09T04:46:13.819Z,7.20
2022-09-09T04:47:21.097Z,7.50
2022-09-09T04:48:27.800Z,9.10
2022-09-09T04:49:34.996Z,8.00
2022-09-09T04:50:42.586Z,7.40
2022-09-09T04:51:53.472Z,7.10
2022-09-09T04:53:10.533Z,7.40
2022-09-09T04:54:19.685Z,8.60
2022-09-09T04:55:27.292Z,8.70
2022-09-09T04:56:39.176Z,11.30
2022-09-09T04:57:47.476Z,7.80
2022-09-09T04:58:59.227Z,9.30
2022-09-09T05:00:24.291Z,8.60
2022-09-09T05:01:31.919Z,8.10
2022-09-09T05:02:45.915Z,8.20
2022-09-09T05:03:55.183Z,7.70
2022-09-09T05:05:03.990Z,7.60
2022-09-09T05:06:21.891Z,6.80
2022-09-09T05:07:37.003Z,8.00
2022-09-09T05:08:45.302Z,7.20
2022-09-09T05:09:55.645Z,7.80
2022-09-09T05:11:02.267Z,6.90
2022-09-09T05:12:10.270Z,8.70
2022-09-09T05:13:22.494Z,7.30
2022-09-09T05:14:33.485Z,7.60
2022-09-09T05:15:40.936Z,8.00
2022-09-09T05:16:54.570Z,10.10
2022-09-09T05:18:04.655Z,7.10
2022-09-09T05:19:12.121Z,8.30
2022-09-09T05:20:23.817Z,7.60
2022-09-09T05:21:32.378Z,7.30
2022-09-09T05:22:39.612Z,6.00
2022-09-09T05:23:47.447Z,7.80
2022-09-09T05:24:55.310Z,7.30
2022-09-09T05:26:01.696Z,9.60
2022-09-09T05:27:09.759Z,8.90
2022-09-09T05:28:16.853Z,7.10
2022-09-09T05:29:23.685Z,9.30
2022-09-09T05:30:32.133Z,7.90
2022-09-09T05:31:51.200Z,8.80
2022-09-09T05:33:03.190Z,8.50
2022-09-09T05:34:20.848Z,8.10
2022-09-09T05:35:42.455Z,7.70
2022-09-09T05:36:49.251Z,8.00
2022-09-09T05:37:55.628Z,9.20
2022-09-09T05:39:02.995Z,7.80
2022-09-09T05:40:10.112Z,8.50
2022-09-09T05:41:17.762Z,7.00
2022-09-09T05:42:24.689Z,8.30
2022-09-09T05:43:30.822Z,6.80
2022-09-09T05:44:38.862Z,7.90
2022-09-09T05:45:45.548Z,8.70
2022-09-09T05:46:56.876Z,12.30
2022-09-09T05:48:09.435Z,6.40
2022-09-09T05:49:25.232Z,8.80
2022-09-09T05:50:33.738Z,8.00
2022-09-09T05:51:47.329Z,8.30
2022-09-09T05:52:57.531Z,7.80
2022-09-09T05:54:07.195Z,9.60
2022-09-09T05:55:17.525Z,7.80
2022-09-09T05:56:29.590Z,8.90
2022-09-09T05:57:36.913Z,9.00
2022-09-09T05:58:45.915Z,14.60
2022-09-09T05:59:52.241Z,8.30
2022-09-09T06:01:30.482Z,7.30
2022-09-09T06:02:39.013Z,8.70
2022-09-09T06:03:50.261Z,7.60
2022-09-09T06:05:00.584Z,7.70
2022-09-09T06:06:13.693Z,10.40
2022-09-09T06:07:24.713Z,8.80
2022-09-09T06:08:32.128Z,8.50
2022-09-09T06:09:38.913Z,8.80
2022-09-09T06:10:46.051Z,7.70
2022-09-09T06:11:52.074Z,8.40
2022-09-09T06:12:59.427Z,9.50
2022-09-09T06:14:07.616Z,8.50
2022-09-09T06:15:14.659Z,9.50
2022-09-09T06:16:28.230Z,10.10
2022-09-09T06:17:34.303Z,8.60
2022-09-09T06:18:44.192Z,9.10
2022-09-09T06:19:51.832Z,9.80
2022-09-09T06:21:04.025Z,8.80
2022-09-09T06:22:14.437Z,6.90
2022-09-09T06:23:22.569Z,7.10
2022-09-09T06:24:29.624Z,8.30
2022-09-09T06:25:38.010Z,10.50
2022-09-09T06:26:44.292Z,7.50
2022-09-09T06:27:55.424Z,9.00
2022-09-09T06:29:14.243Z,9.40
2022-09-09T06:30:21.626Z,15.30
2022-09-09T06:31:31.869Z,9.20
2022-09-09T06:32:44.692Z,6.60
2022-09-09T06:33:53.167Z,9.90
2022-09-09T06:35:00.831Z,9.30
2022-09-09T06:36:07.572Z,11.00
2022-09-09T06:37:16.639Z,9.00
2022-09-09T06:38:27.505Z,8.90
2022-09-09T06:39:36.271Z,7.70
2022-09-09T06:40:44.860Z,7.20
2022-09-09T06:41:51.452Z,6.80
2022-09-09T06:43:17.557Z,8.60
2022-09-09T06:44:35.460Z,8.50
2022-09-09T06:45:42.578Z,6.40
2022-09-09T06:46:52.617Z,9.30
2022-09-09T06:48:00.519Z,10.40
2022-09-09T06:49:11.861Z,9.20
2022-09-09T06:50:18.805Z,8.70
2022-09-09T06:51:29.001Z,8.30
2022-09-09T06:52:35.242Z,8.10
2022-09-09T06:53:43.106Z,7.90
2022-09-09T06:54:52.255Z,8.50
2022-09-09T06:55:58.224Z,6.60
2022-09-09T06:57:15.666Z,8.40
2022-09-09T06:58:32.127Z,12.40
2022-09-09T06:59:37.947Z,9.80
2022-09-09T07:00:44.187Z,8.70
2022-09-09T07:01:54.898Z,9.90
2022-09-09T07:03:05.809Z,8.90
2022-09-09T07:04:12.438Z,8.40
2022-09-09T07:05:19.580Z,9.50
2022-09-09T07:06:48.243Z,11.70
2022-09-09T07:07:57.792Z,9.10
2022-09-09T07:09:08.190Z,7.80
2022-09-09T07:10:15.462Z,6.90
2022-09-09T07:11:23.948Z,8.50
2022-09-09T07:12:30.280Z,7.60
2022-09-09T07:13:40.092Z,9.40
2022-09-09T07:14:46.552Z,8.60
2022-09-09T07:15:54.182Z,7.80
2022-09-09T07:17:00.482Z,7.40
2022-09-09T07:18:08.913Z,8.80
2022-09-09T07:19:15.691Z,10.80
2022-09-09T07:20:22.065Z,8.40
2022-09-09T07:21:30.200Z,7.00
2022-09-09T07:22:36.507Z,7.70
2022-09-09T07:23:42.835Z,8.60
2022-09-09T07:24:49.032Z,5.70
2022-09-09T07:25:56.689Z,6.50
2022-09-09T07:27:02.908Z,6.40
2022-09-09T07:28:09.575Z,6.80
2022-09-09T07:29:20.010Z,6.70
2022-09-09T07:30:27.922Z,7.90
2022-09-09T07:31:36.830Z,8.80
2022-09-09T07:32:45.044Z,7.00
2022-09-09T07:33:52.826Z,7.00
2022-09-09T07:35:02.457Z,9.70
2022-09-09T07:36:12.262Z,9.60
2022-09-09T07:37:20.923Z,10.90
2022-09-09T07:38:28.113Z,9.00
2022-09-09T07:39:34.528Z,7.10
2022-09-09T07:40:41.738Z,9.10
2022-09-09T07:41:51.112Z,8.10
2022-09-09T07:43:01.798Z,9.50
2022-09-09T07:44:14.249Z,11.00
2022-09-09T07:45:21.726Z,10.60
2022-09-09T07:46:28.607Z,10.10
2022-09-09T07:47:34.850Z,12.70
2022-09-09T07:48:46.586Z,13.30
2022-09-09T07:49:54.266Z,11.20
2022-09-09T07:51:21.216Z,12.70
2022-09-09T07:52:29.222Z,11.80
2022-09-09T07:53:39.915Z,9.60
2022-09-09T07:54:47.398Z,10.10
2022-09-09T07:55:53.452Z,8.50
2022-09-09T07:57:00.413Z,11.60
2022-09-09T07:58:07.208Z,11.70
2022-09-09T07:59:15.771Z,10.80
2022-09-09T08:00:23.636Z,10.90
2022-09-09T08:01:40.747Z,11.50
2022-09-09T08:02:48.176Z,10.90
2022-09-09T08:04:16.671Z,10.80
2022-09-09T08:05:23.874Z,11.00
2022-09-09T08:06:34.601Z,9.90
2022-09-09T08:07:41.859Z,12.20
2022-09-09T08:08:52.000Z,9.00
2022-09-09T08:09:59.189Z,15.10
2022-09-09T08:11:18.847Z,11.20
2022-09-09T08:12:25.773Z,8.20
2022-09-09T08:13:32.113Z,13.30
2022-09-09T08:14:38.072Z,11.10
2022-09-09T08:15:44.811Z,12.20
2022-09-09T08:16:55.009Z,9.80
2022-09-09T08:18:06.319Z,7.50
2022-09-09T08:19:11.990Z,9.00
2022-09-09T08:20:18.175Z,13.10
2022-09-09T08:21:25.364Z,9.60
2022-09-09T08:22:31.505Z,10.10
2022-09-09T08:23:41.072Z,9.80
2022-09-09T08:24:48.677Z,8.60
2022-09-09T08:25:55.069Z,9.70
2022-09-09T08:27:03.992Z,9.00
2022-09-09T08:28:14.256Z,9.40
2022-09-09T08:29:21.227Z,12.00
2022-09-09T08:30:28.435Z,8.70
2022-09-09T08:31:38.806Z,13.20
2022-09-09T08:32:46.570Z,10.10
2022-09-09T08:33:56.073Z,11.00
2022-09-09T08:35:08.099Z,11.00
2022-09-09T08:36:21.081Z,9.80
2022-09-09T08:37:28.762Z,13.30
2022-09-09T08:38:35.888Z,9.90
2022-09-09T08:39:42.650Z,9.70
2022-09-09T08:40:51.421Z,10.80
2022-09-09T08:42:17.267Z,8.60
2022-09-09T08:43:24.778Z,13.60
2022-09-09T08:44:49.641Z,10.10
2022-09-09T08:46:28.861Z,11.30
2022-09-09T08:47:54.268Z,17.20
2022-09-09T08:49:27.703Z,10.00
2022-09-09T08:50:40.219Z,9.20
2022-09-09T08:51:53.617Z,9.80
2022-09-09T08:53:22.046Z,10.10
2022-09-09T08:54:50.684Z,9.10
2022-09-09T08:56:05.205Z,8.00
2022-09-09T08:57:29.727Z,10.40
2022-09-09T08:58:37.374Z,9.00
2022-09-09T08:59:46.781Z,9.20
2022-09-09T09:01:11.743Z,8.40
2022-09-09T09:02:43.760Z,10.40
2022-09-09T09:04:27.643Z,12.70
2022-09-09T09:05:38.785Z,10.50
2022-09-09T09:06:56.257Z,10.40
2022-09-09T09:08:23.351Z,8.90
2022-09-09T09:09:44.847Z,8.50
2022-09-09T09:10:55.577Z,11.20
2022-09-09T09:12:11.148Z,9.50
2022-09-09T09:13:44.080Z,10.60
2022-09-09T09:14:52.011Z,10.40
2022-09-09T09:16:34.012Z,11.00
2022-09-09T09:17:40.707Z,8.40
2022-09-09T09:18:46.768Z,9.40
2022-09-09T09:19:54.688Z,10.30
2022-09-09T09:21:22.943Z,11.60
2022-09-09T09:22:48.335Z,9.10
2022-09-09T09:23:58.184Z,8.10
2022-09-09T09:25:23.574Z,8.40
2022-09-09T09:26:37.194Z,9.60
2022-09-09T09:28:24.732Z,10.10
2022-09-09T09:29:38.771Z,9.60
2022-09-09T09:31:14.094Z,10.30
2022-09-09T09:32:22.358Z,10.50
2022-09-09T09:33:51.263Z,9.10
2022-09-09T09:35:02.647Z,8.10
2022-09-09T09:36:10.777Z,8.90
2022-09-09T09:37:33.818Z,8.30
2022-09-09T09:40:16.280Z,8.30
2022-09-09T09:41:44.784Z,13.00
2022-09-09T09:42:58.981Z,8.40
2022-09-09T09:44:06.566Z,7.00
2022-09-09T09:45:26.127Z,8.40
2022-09-09T09:46:32.629Z,11.50
2022-09-09T09:47:49.873Z,8.90
2022-09-09T09:49:11.222Z,10.40
2022-09-09T09:50:22.548Z,8.10
2022-09-09T09:51:32.210Z,8.80
2022-09-09T09:52:42.302Z,8.00
2022-09-09T09:53:51.478Z,7.80
2022-09-09T09:55:06.716Z,10.50
2022-09-09T09:56:16.380Z,11.50
2022-09-09T09:57:30.626Z,9.00
2022-09-09T09:58:56.076Z,8.50
2022-09-09T10:00:22.381Z,7.00
2022-09-09T10:01:36.949Z,10.70
2022-09-09T10:02:48.274Z,7.50
2022-09-09T10:04:20.535Z,9.20
2022-09-09T10:05:35.579Z,9.10
2022-09-09T10:06:49.942Z,9.20
2022-09-09T10:08:06.769Z,7.80
2022-09-09T10:09:34.128Z,8.40
2022-09-09T10:11:09.629Z,7.70
2022-09-09T10:12:38.620Z,8.00
2022-09-09T10:13:51.071Z,8.60
2022-09-09T10:15:18.665Z,6.70
2022-09-09T10:16:31.561Z,8.30
2022-09-09T10:18:04.982Z,6.70
2022-09-09T10:19:22.582Z,8.20
2022-09-09T10:20:49.081Z,7.80
2022-09-09T10:22:16.298Z,8.40
2022-09-09T10:23:43.943Z,6.80
2022-09-09T10:25:04.570Z,7.30
2022-09-09T10:26:38.823Z,7.80
2022-09-09T10:28:01.551Z,6.90
2022-09-09T10:29:15.070Z,7.70
2022-09-09T10:30:59.965Z,8.00
2022-09-09T10:32:36.881Z,6.00
2022-09-09T10:34:00.007Z,8.30
2022-09-09T10:35:32.752Z,8.40
2022-09-09T10:36:39.871Z,10.10
2022-09-09T10:38:01.893Z,6.50
2022-09-09T10:39:43.005Z,8.60
2022-09-09T10:41:23.020Z,7.60
2022-09-09T10:42:30.938Z,7.40
2022-09-09T10:43:46.410Z,9.00
2022-09-09T10:44:53.622Z,6.00
2022-09-09T10:46:25.637Z,8.20
2022-09-09T10:48:03.042Z,6.40
2022-09-09T10:49:48.706Z,9.50
2022-09-09T10:51:03.416Z,12.10
2022-09-09T10:52:31.523Z,6.50
2022-09-09T10:53:54.878Z,8.10
2022-09-09T10:55:15.584Z,6.20
2022-09-09T10:56:25.463Z,8.10
2022-09-09T10:57:43.209Z,8.60
2022-09-09T10:59:00.429Z,9.00
2022-09-09T11:00:26.405Z,7.20
2022-09-09T11:01:48.465Z,6.90
2022-09-09T11:03:04.947Z,6.40
2022-09-09T11:04:18.725Z,9.90
2022-09-09T11:05:43.893Z,10.10
2022-09-09T11:06:53.931Z,6.30
2022-09-09T11:08:18.127Z,8.40
2022-09-09T11:09:31.167Z,7.20
2022-09-09T11:11:05.410Z,6.50
2022-09-09T11:12:14.855Z,6.80
2022-09-09T11:13:40.879Z,8.10
2022-09-09T11:15:09.878Z,6.90
2022-09-09T11:16:37.950Z,6.10
2022-09-09T11:17:58.941Z,7.30
2022-09-09T11:19:12.618Z,10.70
2022-09-09T11:20:18.813Z,9.40
2022-09-09T11:21:51.795Z,6.50
2022-09-09T11:22:59.667Z,7.90
2022-09-09T11:24:12.701Z,8.00
2022-09-09T11:25:30.939Z,8.60
2022-09-09T11:26:47.420Z,8.40
2022-09-09T11:27:59.951Z,7.90
2022-09-09T11:29:30.285Z,7.80
2022-09-09T11:30:56.036Z,10.10
2022-09-09T11:32:30.270Z,9.10
2022-09-09T11:34:07.998Z,9.10
2022-09-09T11:35:43.841Z,8.50
2022-09-09T11:36:55.079Z,8.10
2022-09-09T11:38:18.260Z,7.30
2022-09-09T11:39:54.438Z,9.90
2022-09-09T11:41:08.630Z,9.30
2022-09-09T11:42:15.527Z,11.50
2022-09-09T11:43:36.943Z,8.40
2022-09-09T11:44:44.968Z,8.30
2022-09-09T11:46:00.336Z,11.70
2022-09-09T11:47:19.704Z,11.10
2022-09-09T11:48:35.117Z,8.50
2022-09-09T11:49:41.786Z,7.60
2022-09-09T11:50:52.107Z,8.00
2022-09-09T11:51:59.427Z,9.00
2022-09-09T11:53:24.925Z,7.10
2022-09-09T11:54:51.058Z,8.20
2022-09-09T11:56:35.661Z,8.30
2022-09-09T11:57:44.533Z,9.70
2022-09-09T11:59:27.044Z,9.10
2022-09-09T12:00:39.758Z,11.90
2022-09-09T12:01:47.830Z,7.70
2022-09-09T12:02:56.450Z,9.50
2022-09-09T12:04:09.783Z,7.20
2022-09-09T12:05:17.821Z,10.70
2022-09-09T12:06:35.786Z,13.70
2022-09-09T12:07:48.443Z,15.10
2022-09-09T12:08:59.132Z,14.50
2022-09-09T12:10:06.022Z,16.10
2022-09-09T12:11:13.442Z,15.10
2022-09-09T12:12:29.774Z,17.40
2022-09-09T12:13:35.779Z,19.60
2022-09-09T12:14:47.804Z,17.00
2022-09-09T12:15:55.907Z,13.60
2022-09-09T12:17:22.383Z,13.50
2022-09-09T12:18:46.501Z,17.90
2022-09-09T12:20:23.408Z,13.10
2022-09-09T12:21:40.879Z,15.60
2022-09-09T12:22:50.699Z,16.60
2022-09-09T12:24:03.501Z,9.10
2022-09-09T12:25:33.829Z,10.50
2022-09-09T12:27:02.076Z,10.00
2022-09-09T12:28:13.155Z,11.50
2022-09-09T12:29:44.085Z,8.40
2022-09-09T12:31:10.746Z,7.70
2022-09-09T12:32:22.478Z,8.50
2022-09-09T12:33:29.492Z,8.60
2022-09-09T12:34:56.332Z,7.30
2022-09-09T12:36:04.731Z,6.80
2022-09-09T12:37:43.726Z,9.50
2022-09-09T12:38:54.941Z,6.70
2022-09-09T12:40:04.994Z,8.30
2022-09-09T12:41:28.429Z,9.70
2022-09-09T12:42:42.926Z,7.90
2022-09-09T12:43:50.092Z,6.50
2022-09-09T12:45:05.303Z,11.30
2022-09-09T12:46:17.420Z,9.50
2022-09-09T12:47:45.063Z,10.40
2022-09-09T12:48:52.684Z,11.60
2022-09-09T12:50:00.976Z,12.20
2022-09-09T12:51:09.978Z,9.90
2022-09-09T12:52:28.681Z,10.30
2022-09-09T12:53:35.809Z,10.40
2022-09-09T12:54:46.963Z,10.00
2022-09-09T12:55:55.644Z,9.50
2022-09-09T12:57:02.581Z,12.40
2022-09-09T12:58:10.092Z,14.00
2022-09-09T12:59:41.015Z,12.20
2022-09-09T13:00:58.357Z,9.50
2022-09-09T13:02:05.027Z,8.70
2022-09-09T13:03:19.977Z,13.90
2022-09-09T13:04:26.662Z,11.50
2022-09-09T13:05:40.503Z,11.70
2022-09-09T13:06:46.536Z,16.60
2022-09-09T13:07:53.045Z,17.10
2022-09-09T13:09:00.905Z,18.80
2022-09-09T13:10:08.481Z,15.20
2022-09-09T13:11:18.154Z,15.90
2022-09-09T13:12:26.778Z,12.70
2022-09-09T13:13:39.707Z,19.80
2022-09-09T13:14:51.038Z,11.40
2022-09-09T13:16:00.132Z,16.70
2022-09-09T13:17:09.545Z,14.60
2022-09-09T13:18:17.102Z,15.10
2022-09-09T13:19:31.023Z,18.00
2022-09-09T13:20:36.875Z,20.50
2022-09-09T13:21:42.637Z,11.80
2022-09-09T13:22:52.139Z,16.00
2022-09-09T13:23:58.220Z,18.00
2022-09-09T13:25:14.195Z,13.20
2022-09-09T13:26:26.156Z,16.30
2022-09-09T13:27:40.234Z,16.80
2022-09-09T13:28:48.544Z,22.30
2022-09-09T13:29:59.799Z,15.40
2022-09-09T13:31:31.266Z,20.30
2022-09-09T13:32:38.479Z,17.10
2022-09-09T13:33:46.164Z,18.70
2022-09-09T13:34:58.402Z,16.10
2022-09-09T13:36:07.295Z,15.20
2022-09-09T13:37:35.775Z,17.60
2022-09-09T13:38:57.187Z,18.70
2022-09-09T13:40:04.174Z,17.10
2022-09-09T13:41:13.176Z,22.70
2022-09-09T13:42:31.630Z,21.50
2022-09-09T13:43:49.324Z,19.00
2022-09-09T13:44:56.625Z,14.90
2022-09-09T13:46:06.300Z,17.30
2022-09-09T13:47:22.898Z,21.70
2022-09-09T13:48:29.407Z,14.90
2022-09-09T13:49:37.272Z,18.00
2022-09-09T13:50:43.266Z,17.70
2022-09-09T13:51:52.582Z,18.00
2022-09-09T13:53:00.781Z,15.10
2022-09-09T13:54:12.316Z,16.00
2022-09-09T13:55:23.184Z,13.10
2022-09-09T13:56:30.590Z,15.80
2022-09-09T13:57:37.534Z,19.00
2022-09-09T13:58:43.947Z,21.80
2022-09-09T14:00:04.498Z,17.20
2022-09-09T14:01:15.877Z,18.80
2022-09-09T14:02:25.249Z,14.20
2022-09-09T14:03:32.166Z,13.80
2022-09-09T14:04:38.220Z,12.50
2022-09-09T14:05:44.362Z,19.40
2022-09-09T14:06:53.032Z,14.50
2022-09-09T14:07:59.221Z,20.40
2022-09-09T14:09:05.304Z,21.00
2022-09-09T14:10:13.346Z,18.30
2022-09-09T14:11:19.261Z,15.20
2022-09-09T14:12:24.786Z,23.20
2022-09-09T14:13:30.437Z,18.60
2022-09-09T14:14:37.911Z,21.00
2022-09-09T14:15:45.364Z,14.70
2022-09-09T14:16:52.224Z,23.50
2022-09-09T14:17:58.237Z,18.50
2022-09-09T14:19:04.414Z,19.70
2022-09-09T14:20:10.970Z,17.40
2022-09-09T14:21:18.741Z,15.60
2022-09-09T14:22:25.426Z,16.90
2022-09-09T14:23:34.655Z,15.50
2022-09-09T14:24:41.444Z,14.00
2022-09-09T14:25:50.780Z,13.00
2022-09-09T14:26:57.084Z,14.90
2022-09-09T14:28:03.799Z,16.60
2022-09-09T14:29:11.571Z,14.90
2022-09-09T14:30:18.110Z,18.70
2022-09-09T14:31:27.130Z,22.00
2022-09-09T14:32:34.898Z,20.60
2022-09-09T14:33:43.573Z,20.40
2022-09-09T14:34:51.448Z,23.40
2022-09-09T14:36:04.850Z,15.80
2022-09-09T14:37:11.376Z,12.80
2022-09-09T14:38:19.207Z,10.50
2022-09-09T14:39:25.637Z,15.10
2022-09-09T14:40:31.277Z,16.20
2022-09-09T14:41:40.179Z,10.80
2022-09-09T14:42:46.957Z,16.80
2022-09-09T14:43:53.654Z,15.20
2022-09-09T14:45:00.435Z,14.20
2022-09-09T14:46:18.116Z,13.70
2022-09-09T14:47:26.181Z,15.00
2022-09-09T14:48:32.678Z,15.50
2022-09-09T14:49:43.851Z,16.30
2022-09-09T14:50:53.788Z,14.00
2022-09-09T14:52:00.103Z,14.70
2022-09-09T14:53:06.447Z,14.80
2022-09-09T14:54:14.653Z,16.70
2022-09-09T14:55:36.179Z,15.80
2022-09-09T14:56:44.649Z,9.90
2022-09-09T14:57:54.581Z,10.40
2022-09-09T14:59:05.065Z,9.90
2022-09-09T15:00:14.726Z,12.10
2022-09-09T15:01:25.644Z,10.80
2022-09-09T15:02:32.930Z,14.00
2022-09-09T15:03:39.644Z,11.50
2022-09-09T15:04:47.884Z,15.30
2022-09-09T15:05:54.842Z,13.00
2022-09-09T15:07:01.674Z,14.50
2022-09-09T15:08:09.535Z,9.70
2022-09-09T15:09:16.873Z,11.20
2022-09-09T15:10:24.292Z,9.70
2022-09-09T15:11:39.439Z,6.20
2022-09-09T15:12:47.087Z,12.40
2022-09-09T15:13:56.785Z,8.60
2022-09-09T15:15:08.228Z,10.10
2022-09-09T15:16:20.482Z,12.30
2022-09-09T15:17:27.616Z,9.80
2022-09-09T15:18:40.811Z,8.40
2022-09-09T15:19:56.665Z,7.80
2022-09-09T15:21:05.058Z,11.00
2022-09-09T15:22:13.057Z,10.70
2022-09-09T15:23:22.980Z,8.60
2022-09-09T15:24:30.755Z,8.70
2022-09-09T15:25:39.214Z,8.50
2022-09-09T15:26:45.628Z,10.60
2022-09-09T15:27:54.978Z,11.80
2022-09-09T15:29:02.859Z,6.60
2022-09-09T15:30:11.013Z,8.60
2022-09-09T15:31:33.127Z,9.40
2022-09-09T15:32:41.374Z,6.40
2022-09-09T15:34:04.466Z,4.80
2022-09-09T15:35:12.435Z,10.60
2022-09-09T15:36:28.760Z,6.80
2022-09-09T15:37:53.779Z,7.00
2022-09-09T15:39:06.490Z,8.40
2022-09-09T15:40:21.048Z,10.60
2022-09-09T15:41:32.052Z,7.90
2022-09-09T15:42:45.429Z,6.80
2022-09-09T15:43:58.722Z,9.30
2022-09-09T15:45:08.173Z,9.00
2022-09-09T15:46:44.540Z,10.00
2022-09-09T15:47:54.721Z,8.90
2022-09-09T15:49:15.231Z,6.20
2022-09-09T15:50:22.250Z,7.80
2022-09-09T15:51:47.956Z,7.90
2022-09-09T15:52:56.676Z,10.50
2022-09-09T15:54:11.733Z,11.80
2022-09-09T15:55:32.866Z,8.90
2022-09-09T15:56:39.477Z,9.30
2022-09-09T15:57:50.812Z,7.60
2022-09-09T15:59:01.324Z,6.80
2022-09-09T16:00:10.536Z,11.00
2022-09-09T16:01:20.817Z,11.80
2022-09-09T16:02:27.657Z,10.10
2022-09-09T16:03:54.415Z,10.90
2022-09-09T16:05:07.369Z,9.60
2022-09-09T16:06:25.869Z,7.90
2022-09-09T16:07:37.588Z,10.00
2022-09-09T16:08:45.809Z,9.10
2022-09-09T16:09:54.949Z,10.00
2022-09-09T16:11:16.465Z,11.40
2022-09-09T16:12:24.310Z,6.90
2022-09-09T16:13:37.731Z,8.40
2022-09-09T16:14:43.754Z,5.40
2022-09-09T16:15:57.368Z,10.50
2022-09-09T16:17:05.592Z,9.70
2022-09-09T16:18:13.916Z,6.50
2022-09-09T16:19:22.872Z,6.10
2022-09-09T16:20:34.742Z,6.90
2022-09-09T16:21:46.240Z,7.10
2022-09-09T16:22:54.796Z,7.40
2022-09-09T16:24:07.151Z,6.70
2022-09-09T16:25:25.276Z,9.70
2022-09-09T16:26:41.123Z,8.60
2022-09-09T16:27:50.290Z,8.50
2022-09-09T16:28:57.972Z,13.30
2022-09-09T16:30:06.077Z,7.90
2022-09-09T16:31:20.633Z,10.00
2022-09-09T16:32:28.862Z,8.00
2022-09-09T16:34:56.838Z,5.60
2022-09-09T16:36:19.178Z,3.30
2022-09-09T16:37:36.351Z,4.50
2022-09-09T16:39:12.999Z,4.60
2022-09-09T16:41:43.385Z,6.60
2022-09-09T16:42:52.376Z,6.10
2022-09-09T16:44:04.049Z,6.10
2022-09-09T16:45:12.163Z,5.60
2022-09-09T16:46:23.270Z,6.70
2022-09-09T16:47:29.633Z,5.00
2022-09-09T16:48:36.108Z,5.70
2022-09-09T16:49:42.419Z,5.90
2022-09-09T16:50:51.220Z,4.60
2022-09-09T16:52:00.489Z,5.00
2022-09-09T16:53:10.749Z,10.00
2022-09-09T16:54:20.209Z,4.90
2022-09-09T16:55:29.626Z,4.70
2022-09-09T16:56:43.334Z,6.20
2022-09-09T16:57:52.530Z,3.90
2022-09-09T16:59:01.312Z,5.70
2022-09-09T17:00:10.544Z,4.50
2022-09-09T17:01:17.833Z,4.60
2022-09-09T17:02:26.119Z,4.60
2022-09-09T17:03:38.534Z,4.40